Olm, Luxembourg
Current Conditions -  °F | °C
As of 9:50 PM on Tuesday 25 Nov 2014 (Local Time) from ELLX Reporting Station
Broken Clouds Broken Clouds  
Wind Chill: 33°   Ceiling: 900
Heat Index: 39°   Visibility: 5mi
Dew Point: 37°   Wind: 9mph
Humidity: 93%   Direction: 60°ENE
Pressure: 30.06"   Gusts: NA
Location:  49.66°N, 6°E
Report Text: ELLX 252050Z 06008KT 8000 BKN009 04/03 Q1018 NOSIG
Loading
Personal Weather Stations






























Interactive Weather Map New forecast layout! Learn more

10-Day Weather Forecast

Advertisements
Track Severe Weather on mobile